sensor_id;sensor_type;location;lat;lon;timestamp;P1;durP1;ratioP1;P2;durP2;ratioP2
9854;SDS011;4966;48.112;9.282;2023-02-15T00:01:31;43.40;;;11.30;;
9854;SDS011;4966;48.112;9.282;2023-02-15T00:03:57;38.92;;;9.77;;
9854;SDS011;4966;48.112;9.282;2023-02-15T00:06:22;37.08;;;10.15;;
9854;SDS011;4966;48.112;9.282;2023-02-15T00:08:48;46.88;;;11.20;;
9854;SDS011;4966;48.112;9.282;2023-02-15T00:11:15;41.17;;;10.07;;
9854;SDS011;4966;48.112;9.282;2023-02-15T00:13:42;42.78;;;11.45;;
9854;SDS011;4966;48.112;9.282;2023-02-15T00:16:11;47.50;;;11.32;;
9854;SDS011;4966;48.112;9.282;2023-02-15T00:18:40;44.90;;;11.18;;
9854;SDS011;4966;48.112;9.282;2023-02-15T00:21:07;45.40;;;11.38;;
9854;SDS011;4966;48.112;9.282;2023-02-15T00:23:33;42.20;;;10.20;;
9854;SDS011;4966;48.112;9.282;2023-02-15T00:26:09;38.22;;;10.90;;
9854;SDS011;4966;48.112;9.282;2023-02-15T00:28:36;48.60;;;10.35;;
9854;SDS011;4966;48.112;9.282;2023-02-15T00:31:02;28.90;;;10.35;;
9854;SDS011;4966;48.112;9.282;2023-02-15T00:33:28;32.75;;;11.00;;
9854;SDS011;4966;48.112;9.282;2023-02-15T00:35:57;46.78;;;10.73;;
9854;SDS011;4966;48.112;9.282;2023-02-15T00:38:23;27.27;;;9.70;;
9854;SDS011;4966;48.112;9.282;2023-02-15T00:40:53;30.63;;;10.05;;
9854;SDS011;4966;48.112;9.282;2023-02-15T00:43:19;35.45;;;10.40;;
9854;SDS011;4966;48.112;9.282;2023-02-15T00:45:45;28.08;;;9.57;;
9854;SDS011;4966;48.112;9.282;2023-02-15T00:48:11;36.70;;;9.68;;
9854;SDS011;4966;48.112;9.282;2023-02-15T00:50:36;27.33;;;8.63;;
9854;SDS011;4966;48.112;9.282;2023-02-15T00:53:01;30.52;;;9.75;;
9854;SDS011;4966;48.112;9.282;2023-02-15T00:55:27;28.30;;;10.63;;
9854;SDS011;4966;48.112;9.282;2023-02-15T00:57:52;30.42;;;10.57;;
9854;SDS011;4966;48.112;9.282;2023-02-15T01:00:18;44.28;;;10.52;;
9854;SDS011;4966;48.112;9.282;2023-02-15T01:02:43;38.05;;;9.65;;
9854;SDS011;4966;48.112;9.282;2023-02-15T01:05:08;32.05;;;10.27;;
9854;SDS011;4966;48.112;9.282;2023-02-15T01:07:34;41.40;;;11.15;;
9854;SDS011;4966;48.112;9.282;2023-02-15T01:09:59;36.33;;;10.73;;
9854;SDS011;4966;48.112;9.282;2023-02-15T01:12:24;35.78;;;10.75;;
9854;SDS011;4966;48.112;9.282;2023-02-15T01:14:50;31.13;;;10.80;;
9854;SDS011;4966;48.112;9.282;2023-02-15T01:17:15;40.63;;;11.32;;
9854;SDS011;4966;48.112;9.282;2023-02-15T01:19:40;31.52;;;10.30;;
9854;SDS011;4966;48.112;9.282;2023-02-15T01:22:06;33.40;;;10.00;;
9854;SDS011;4966;48.112;9.282;2023-02-15T01:24:31;27.30;;;10.15;;
9854;SDS011;4966;48.112;9.282;2023-02-15T01:26:57;32.25;;;10.40;;
9854;SDS011;4966;48.112;9.282;2023-02-15T01:29:22;31.17;;;9.68;;
9854;SDS011;4966;48.112;9.282;2023-02-15T01:31:47;27.10;;;9.30;;
9854;SDS011;4966;48.112;9.282;2023-02-15T01:34:13;28.38;;;10.15;;
9854;SDS011;4966;48.112;9.282;2023-02-15T01:36:38;33.20;;;10.18;;
9854;SDS011;4966;48.112;9.282;2023-02-15T01:39:03;30.90;;;11.00;;
9854;SDS011;4966;48.112;9.282;2023-02-15T01:41:29;39.92;;;10.77;;
9854;SDS011;4966;48.112;9.282;2023-02-15T01:44:00;47.50;;;11.02;;
9854;SDS011;4966;48.112;9.282;2023-02-15T01:46:33;29.70;;;9.63;;
9854;SDS011;4966;48.112;9.282;2023-02-15T01:49:05;33.38;;;11.00;;
9854;SDS011;4966;48.112;9.282;2023-02-15T01:51:36;34.08;;;11.00;;
9854;SDS011;4966;48.112;9.282;2023-02-15T01:54:27;28.30;;;9.02;;
9854;SDS011;4966;48.112;9.282;2023-02-15T01:56:58;25.73;;;9.05;;
9854;SDS011;4966;48.112;9.282;2023-02-15T01:59:28;51.53;;;10.30;;
9854;SDS011;4966;48.112;9.282;2023-02-15T02:01:56;42.28;;;10.98;;
9854;SDS011;4966;48.112;9.282;2023-02-15T02:04:35;47.47;;;10.32;;
9854;SDS011;4966;48.112;9.282;2023-02-15T02:07:02;35.88;;;10.90;;
9854;SDS011;4966;48.112;9.282;2023-02-15T02:09:29;54.20;;;11.05;;
9854;SDS011;4966;48.112;9.282;2023-02-15T02:11:55;50.58;;;10.90;;
9854;SDS011;4966;48.112;9.282;2023-02-15T02:14:20;44.78;;;10.63;;
9854;SDS011;4966;48.112;9.282;2023-02-15T02:22:55;28.15;;;8.60;;
9854;SDS011;4966;48.112;9.282;2023-02-15T02:25:47;46.55;;;10.55;;
9854;SDS011;4966;48.112;9.282;2023-02-15T02:28:52;27.60;;;7.63;;
9854;SDS011;4966;48.112;9.282;2023-02-15T02:34:07;52.13;;;8.80;;
9854;SDS011;4966;48.112;9.282;2023-02-15T02:44:57;33.45;;;10.38;;
9854;SDS011;4966;48.112;9.282;2023-02-15T02:47:36;45.83;;;9.10;;
9854;SDS011;4966;48.112;9.282;2023-02-15T02:50:07;24.50;;;8.07;;
9854;SDS011;4966;48.112;9.282;2023-02-15T02:52:44;35.63;;;7.53;;
9854;SDS011;4966;48.112;9.282;2023-02-15T02:57:39;23.33;;;6.90;;
9854;SDS011;4966;48.112;9.282;2023-02-15T03:00:08;31.45;;;7.78;;
9854;SDS011;4966;48.112;9.282;2023-02-15T03:02:36;28.77;;;7.63;;
9854;SDS011;4966;48.112;9.282;2023-02-15T03:05:07;31.95;;;7.70;;
9854;SDS011;4966;48.112;9.282;2023-02-15T03:07:36;31.67;;;7.88;;
9854;SDS011;4966;48.112;9.282;2023-02-15T03:10:04;37.22;;;7.90;;
9854;SDS011;4966;48.112;9.282;2023-02-15T03:12:33;35.63;;;9.48;;
9854;SDS011;4966;48.112;9.282;2023-02-15T03:15:01;33.13;;;9.10;;
9854;SDS011;4966;48.112;9.282;2023-02-15T03:17:31;29.25;;;9.05;;
9854;SDS011;4966;48.112;9.282;2023-02-15T03:20:02;29.67;;;9.15;;
9854;SDS011;4966;48.112;9.282;2023-02-15T03:22:34;46.25;;;8.32;;
9854;SDS011;4966;48.112;9.282;2023-02-15T03:25:25;27.25;;;8.18;;
9854;SDS011;4966;48.112;9.282;2023-02-15T03:28:16;19.30;;;7.32;;
9854;SDS011;4966;48.112;9.282;2023-02-15T03:30:47;19.05;;;7.45;;
9854;SDS011;4966;48.112;9.282;2023-02-15T03:33:17;27.48;;;8.85;;
9854;SDS011;4966;48.112;9.282;2023-02-15T03:38:20;22.42;;;8.93;;
9854;SDS011;4966;48.112;9.282;2023-02-15T03:43:49;23.25;;;8.95;;
9854;SDS011;4966;48.112;9.282;2023-02-15T03:52:12;21.63;;;9.25;;
9854;SDS011;4966;48.112;9.282;2023-02-15T03:54:40;36.58;;;10.50;;
9854;SDS011;4966;48.112;9.282;2023-02-15T03:57:20;31.48;;;8.73;;
9854;SDS011;4966;48.112;9.282;2023-02-15T04:03:27;20.75;;;7.65;;
9854;SDS011;4966;48.112;9.282;2023-02-15T04:06:02;35.50;;;8.48;;
9854;SDS011;4966;48.112;9.282;2023-02-15T04:08:28;42.00;;;7.60;;
9854;SDS011;4966;48.112;9.282;2023-02-15T04:11:11;24.45;;;7.97;;
9854;SDS011;4966;48.112;9.282;2023-02-15T04:13:36;31.75;;;8.05;;
9854;SDS011;4966;48.112;9.282;2023-02-15T04:16:02;25.05;;;7.97;;
9854;SDS011;4966;48.112;9.282;2023-02-15T04:18:27;24.27;;;9.73;;
9854;SDS011;4966;48.112;9.282;2023-02-15T04:21:12;25.52;;;7.45;;
9854;SDS011;4966;48.112;9.282;2023-02-15T04:23:56;46.88;;;9.00;;
9854;SDS011;4966;48.112;9.282;2023-02-15T04:26:40;27.10;;;7.93;;
9854;SDS011;4966;48.112;9.282;2023-02-15T04:29:05;50.63;;;7.10;;
9854;SDS011;4966;48.112;9.282;2023-02-15T04:31:31;49.28;;;8.32;;
9854;SDS011;4966;48.112;9.282;2023-02-15T04:33:56;58.33;;;7.72;;
9854;SDS011;4966;48.112;9.282;2023-02-15T04:36:21;41.40;;;8.20;;
9854;SDS011;4966;48.112;9.282;2023-02-15T04:38:47;56.55;;;8.18;;
9854;SDS011;4966;48.112;9.282;2023-02-15T04:41:12;54.88;;;8.45;;
9854;SDS011;4966;48.112;9.282;2023-02-15T04:43:38;66.03;;;7.90;;
9854;SDS011;4966;48.112;9.282;2023-02-15T04:46:03;49.47;;;8.25;;
9854;SDS011;4966;48.112;9.282;2023-02-15T04:48:29;45.80;;;8.23;;
9854;SDS011;4966;48.112;9.282;2023-02-15T04:50:55;47.70;;;7.35;;
9854;SDS011;4966;48.112;9.282;2023-02-15T04:53:20;70.57;;;7.82;;
9854;SDS011;4966;48.112;9.282;2023-02-15T04:55:45;41.47;;;7.40;;
9854;SDS011;4966;48.112;9.282;2023-02-15T04:58:11;38.80;;;7.22;;
9854;SDS011;4966;48.112;9.282;2023-02-15T05:00:36;52.63;;;8.57;;
9854;SDS011;4966;48.112;9.282;2023-02-15T05:03:01;42.22;;;7.80;;
9854;SDS011;4966;48.112;9.282;2023-02-15T05:05:27;64.43;;;8.43;;
9854;SDS011;4966;48.112;9.282;2023-02-15T05:07:52;35.63;;;6.50;;
9854;SDS011;4966;48.112;9.282;2023-02-15T05:10:18;45.20;;;8.02;;
9854;SDS011;4966;48.112;9.282;2023-02-15T05:12:43;45.30;;;7.65;;
9854;SDS011;4966;48.112;9.282;2023-02-15T05:15:08;54.65;;;8.23;;
9854;SDS011;4966;48.112;9.282;2023-02-15T05:17:34;46.35;;;8.02;;
9854;SDS011;4966;48.112;9.282;2023-02-15T05:19:59;57.05;;;10.00;;
9854;SDS011;4966;48.112;9.282;2023-02-15T05:22:24;32.42;;;9.20;;
9854;SDS011;4966;48.112;9.282;2023-02-15T05:24:50;61.47;;;7.93;;
9854;SDS011;4966;48.112;9.282;2023-02-15T05:27:33;23.83;;;8.10;;
9854;SDS011;4966;48.112;9.282;2023-02-15T05:30:17;57.22;;;11.57;;
9854;SDS011;4966;48.112;9.282;2023-02-15T05:32:43;25.92;;;7.05;;
9854;SDS011;4966;48.112;9.282;2023-02-15T05:35:11;22.65;;;7.35;;
9854;SDS011;4966;48.112;9.282;2023-02-15T05:37:39;31.20;;;7.72;;
9854;SDS011;4966;48.112;9.282;2023-02-15T05:40:04;34.83;;;8.07;;
9854;SDS011;4966;48.112;9.282;2023-02-15T05:42:30;35.00;;;7.93;;
9854;SDS011;4966;48.112;9.282;2023-02-15T05:44:56;51.20;;;7.88;;
9854;SDS011;4966;48.112;9.282;2023-02-15T05:47:21;42.88;;;8.35;;
9854;SDS011;4966;48.112;9.282;2023-02-15T05:49:46;28.63;;;7.40;;
9854;SDS011;4966;48.112;9.282;2023-02-15T05:52:12;49.35;;;8.90;;
9854;SDS011;4966;48.112;9.282;2023-02-15T05:54:37;55.72;;;8.32;;
9854;SDS011;4966;48.112;9.282;2023-02-15T05:57:03;53.75;;;8.88;;
9854;SDS011;4966;48.112;9.282;2023-02-15T05:59:28;33.08;;;6.80;;
9854;SDS011;4966;48.112;9.282;2023-02-15T06:01:53;46.63;;;7.88;;
9854;SDS011;4966;48.112;9.282;2023-02-15T06:04:19;48.70;;;7.72;;
9854;SDS011;4966;48.112;9.282;2023-02-15T06:06:44;27.30;;;7.50;;
9854;SDS011;4966;48.112;9.282;2023-02-15T06:09:10;26.05;;;7.13;;
9854;SDS011;4966;48.112;9.282;2023-02-15T06:11:37;39.17;;;7.90;;
9854;SDS011;4966;48.112;9.282;2023-02-15T06:14:02;32.30;;;7.65;;
9854;SDS011;4966;48.112;9.282;2023-02-15T06:16:28;29.10;;;7.50;;
9854;SDS011;4966;48.112;9.282;2023-02-15T06:18:53;25.73;;;7.88;;
9854;SDS011;4966;48.112;9.282;2023-02-15T06:21:18;25.08;;;7.60;;
9854;SDS011;4966;48.112;9.282;2023-02-15T06:23:44;44.95;;;8.32;;
9854;SDS011;4966;48.112;9.282;2023-02-15T06:26:09;31.92;;;5.85;;
9854;SDS011;4966;48.112;9.282;2023-02-15T06:28:35;32.33;;;7.25;;
9854;SDS011;4966;48.112;9.282;2023-02-15T06:31:02;36.55;;;8.38;;
9854;SDS011;4966;48.112;9.282;2023-02-15T06:33:27;42.92;;;8.50;;
9854;SDS011;4966;48.112;9.282;2023-02-15T06:35:53;29.33;;;8.98;;
9854;SDS011;4966;48.112;9.282;2023-02-15T06:38:18;35.03;;;8.57;;
9854;SDS011;4966;48.112;9.282;2023-02-15T06:40:43;49.08;;;9.68;;
9854;SDS011;4966;48.112;9.282;2023-02-15T06:43:09;26.23;;;8.00;;
9854;SDS011;4966;48.112;9.282;2023-02-15T06:45:34;29.85;;;8.95;;
9854;SDS011;4966;48.112;9.282;2023-02-15T06:47:59;24.17;;;7.57;;
9854;SDS011;4966;48.112;9.282;2023-02-15T06:50:25;25.00;;;8.55;;
9854;SDS011;4966;48.112;9.282;2023-02-15T06:52:55;45.53;;;9.38;;
9854;SDS011;4966;48.112;9.282;2023-02-15T06:55:21;22.13;;;7.80;;
9854;SDS011;4966;48.112;9.282;2023-02-15T06:57:47;27.52;;;8.18;;
9854;SDS011;4966;48.112;9.282;2023-02-15T07:00:12;29.73;;;9.25;;
9854;SDS011;4966;48.112;9.282;2023-02-15T07:02:38;34.63;;;9.00;;
9854;SDS011;4966;48.112;9.282;2023-02-15T07:05:03;29.83;;;7.72;;
9854;SDS011;4966;48.112;9.282;2023-02-15T07:07:29;36.03;;;8.52;;
9854;SDS011;4966;48.112;9.282;2023-02-15T07:09:55;32.88;;;8.00;;
9854;SDS011;4966;48.112;9.282;2023-02-15T07:12:20;21.90;;;8.45;;
9854;SDS011;4966;48.112;9.282;2023-02-15T07:15:04;29.08;;;8.20;;
9854;SDS011;4966;48.112;9.282;2023-02-15T07:17:31;53.60;;;8.60;;
9854;SDS011;4966;48.112;9.282;2023-02-15T07:19:56;30.02;;;7.88;;
9854;SDS011;4966;48.112;9.282;2023-02-15T07:22:21;20.35;;;8.20;;
9854;SDS011;4966;48.112;9.282;2023-02-15T07:24:47;22.70;;;8.07;;
9854;SDS011;4966;48.112;9.282;2023-02-15T07:27:14;19.92;;;8.15;;
9854;SDS011;4966;48.112;9.282;2023-02-15T07:29:39;20.40;;;8.23;;
9854;SDS011;4966;48.112;9.282;2023-02-15T07:32:04;41.08;;;8.48;;
9854;SDS011;4966;48.112;9.282;2023-02-15T07:34:30;30.30;;;7.55;;
9854;SDS011;4966;48.112;9.282;2023-02-15T07:36:55;32.30;;;8.82;;
9854;SDS011;4966;48.112;9.282;2023-02-15T07:39:21;23.08;;;8.85;;
9854;SDS011;4966;48.112;9.282;2023-02-15T07:41:46;20.55;;;9.13;;
9854;SDS011;4966;48.112;9.282;2023-02-15T07:44:12;20.85;;;7.47;;
9854;SDS011;4966;48.112;9.282;2023-02-15T07:46:38;23.05;;;10.13;;
9854;SDS011;4966;48.112;9.282;2023-02-15T07:49:04;23.65;;;9.23;;
9854;SDS011;4966;48.112;9.282;2023-02-15T07:51:29;20.65;;;8.43;;
9854;SDS011;4966;48.112;9.282;2023-02-15T07:53:55;33.33;;;12.32;;
9854;SDS011;4966;48.112;9.282;2023-02-15T07:56:20;34.13;;;14.35;;
9854;SDS011;4966;48.112;9.282;2023-02-15T07:58:45;24.52;;;10.15;;
9854;SDS011;4966;48.112;9.282;2023-02-15T08:01:30;23.45;;;8.98;;
9854;SDS011;4966;48.112;9.282;2023-02-15T08:03:57;23.27;;;8.95;;
9854;SDS011;4966;48.112;9.282;2023-02-15T08:06:24;20.52;;;7.93;;
9854;SDS011;4966;48.112;9.282;2023-02-15T08:08:51;20.25;;;8.35;;
9854;SDS011;4966;48.112;9.282;2023-02-15T08:11:18;23.63;;;8.13;;
9854;SDS011;4966;48.112;9.282;2023-02-15T08:16:35;18.98;;;7.55;;
9854;SDS011;4966;48.112;9.282;2023-02-15T08:19:10;19.83;;;6.93;;
9854;SDS011;4966;48.112;9.282;2023-02-15T08:21:47;17.67;;;7.50;;
9854;SDS011;4966;48.112;9.282;2023-02-15T08:24:17;17.30;;;8.00;;
9854;SDS011;4966;48.112;9.282;2023-02-15T08:26:44;20.98;;;7.10;;
9854;SDS011;4966;48.112;9.282;2023-02-15T08:29:11;17.75;;;7.50;;
9854;SDS011;4966;48.112;9.282;2023-02-15T08:31:37;14.85;;;6.43;;
9854;SDS011;4966;48.112;9.282;2023-02-15T08:34:03;16.35;;;7.18;;
9854;SDS011;4966;48.112;9.282;2023-02-15T08:36:30;21.35;;;8.45;;
9854;SDS011;4966;48.112;9.282;2023-02-15T08:38:57;20.10;;;7.68;;
9854;SDS011;4966;48.112;9.282;2023-02-15T08:41:27;17.17;;;6.32;;
9854;SDS011;4966;48.112;9.282;2023-02-15T08:43:56;16.33;;;6.90;;
9854;SDS011;4966;48.112;9.282;2023-02-15T08:46:24;20.95;;;8.05;;
9854;SDS011;4966;48.112;9.282;2023-02-15T08:48:50;17.98;;;7.97;;
9854;SDS011;4966;48.112;9.282;2023-02-15T08:51:20;21.77;;;6.78;;
9854;SDS011;4966;48.112;9.282;2023-02-15T08:53:51;15.00;;;6.22;;
9854;SDS011;4966;48.112;9.282;2023-02-15T08:56:19;21.73;;;8.45;;
9854;SDS011;4966;48.112;9.282;2023-02-15T08:58:46;18.73;;;8.15;;
9854;SDS011;4966;48.112;9.282;2023-02-15T09:01:13;19.83;;;7.93;;
9854;SDS011;4966;48.112;9.282;2023-02-15T09:03:44;21.00;;;8.55;;
9854;SDS011;4966;48.112;9.282;2023-02-15T09:06:10;21.70;;;8.65;;
9854;SDS011;4966;48.112;9.282;2023-02-15T09:08:36;20.42;;;8.07;;
9854;SDS011;4966;48.112;9.282;2023-02-15T09:12:02;22.27;;;9.20;;
9854;SDS011;4966;48.112;9.282;2023-02-15T09:14:05;21.92;;;8.43;;
9854;SDS011;4966;48.112;9.282;2023-02-15T09:16:39;18.98;;;8.68;;
9854;SDS011;4966;48.112;9.282;2023-02-15T09:19:07;25.08;;;9.18;;
9854;SDS011;4966;48.112;9.282;2023-02-15T09:21:33;22.33;;;9.00;;
9854;SDS011;4966;48.112;9.282;2023-02-15T09:24:01;23.02;;;9.25;;
9854;SDS011;4966;48.112;9.282;2023-02-15T09:26:29;19.70;;;9.52;;
9854;SDS011;4966;48.112;9.282;2023-02-15T09:28:57;21.10;;;9.18;;
9854;SDS011;4966;48.112;9.282;2023-02-15T09:31:47;23.35;;;8.90;;
9854;SDS011;4966;48.112;9.282;2023-02-15T09:36:41;18.65;;;8.13;;
9854;SDS011;4966;48.112;9.282;2023-02-15T09:49:58;27.25;;;10.82;;
9854;SDS011;4966;48.112;9.282;2023-02-15T09:52:36;18.05;;;7.82;;
9854;SDS011;4966;48.112;9.282;2023-02-15T09:55:22;24.15;;;9.63;;
9854;SDS011;4966;48.112;9.282;2023-02-15T10:00:43;21.40;;;8.90;;
9854;SDS011;4966;48.112;9.282;2023-02-15T10:03:33;21.90;;;8.70;;
9854;SDS011;4966;48.112;9.282;2023-02-15T10:17:02;23.80;;;9.85;;
9854;SDS011;4966;48.112;9.282;2023-02-15T10:27:47;24.23;;;10.35;;
9854;SDS011;4966;48.112;9.282;2023-02-15T10:35:45;23.10;;;9.65;;
9854;SDS011;4966;48.112;9.282;2023-02-15T10:38:50;23.80;;;10.15;;
9854;SDS011;4966;48.112;9.282;2023-02-15T10:44:35;20.52;;;8.50;;
9854;SDS011;4966;48.112;9.282;2023-02-15T11:06:23;27.13;;;10.82;;
9854;SDS011;4966;48.112;9.282;2023-02-15T11:08:54;23.48;;;10.63;;
9854;SDS011;4966;48.112;9.282;2023-02-15T11:11:36;28.63;;;11.82;;
9854;SDS011;4966;48.112;9.282;2023-02-15T11:14:12;28.80;;;12.60;;
9854;SDS011;4966;48.112;9.282;2023-02-15T11:16:43;29.13;;;12.07;;
9854;SDS011;4966;48.112;9.282;2023-02-15T11:19:19;26.98;;;12.70;;
9854;SDS011;4966;48.112;9.282;2023-02-15T11:21:50;26.55;;;12.40;;
9854;SDS011;4966;48.112;9.282;2023-02-15T11:24:20;29.48;;;14.00;;
9854;SDS011;4966;48.112;9.282;2023-02-15T11:29:25;32.80;;;14.02;;
9854;SDS011;4966;48.112;9.282;2023-02-15T11:31:58;29.17;;;12.82;;
9854;SDS011;4966;48.112;9.282;2023-02-15T11:34:29;27.17;;;12.75;;
9854;SDS011;4966;48.112;9.282;2023-02-15T11:37:01;31.33;;;12.18;;
9854;SDS011;4966;48.112;9.282;2023-02-15T11:39:32;27.63;;;13.95;;
9854;SDS011;4966;48.112;9.282;2023-02-15T11:42:01;28.75;;;12.88;;
9854;SDS011;4966;48.112;9.282;2023-02-15T11:44:35;28.80;;;13.23;;
9854;SDS011;4966;48.112;9.282;2023-02-15T11:47:08;25.40;;;10.02;;
9854;SDS011;4966;48.112;9.282;2023-02-15T11:49:35;30.27;;;13.68;;
9854;SDS011;4966;48.112;9.282;2023-02-15T11:52:04;29.77;;;13.38;;
9854;SDS011;4966;48.112;9.282;2023-02-15T11:54:35;33.00;;;14.20;;
9854;SDS011;4966;48.112;9.282;2023-02-15T12:00:05;34.05;;;13.50;;
9854;SDS011;4966;48.112;9.282;2023-02-15T12:02:39;33.67;;;13.90;;
9854;SDS011;4966;48.112;9.282;2023-02-15T12:05:11;29.45;;;12.98;;
9854;SDS011;4966;48.112;9.282;2023-02-15T12:07:42;27.83;;;12.68;;
9854;SDS011;4966;48.112;9.282;2023-02-15T12:12:47;23.80;;;11.82;;
9854;SDS011;4966;48.112;9.282;2023-02-15T12:15:13;26.55;;;12.25;;
9854;SDS011;4966;48.112;9.282;2023-02-15T12:17:39;23.23;;;12.82;;
9854;SDS011;4966;48.112;9.282;2023-02-15T12:22:38;22.23;;;12.73;;
9854;SDS011;4966;48.112;9.282;2023-02-15T12:25:21;21.55;;;13.00;;
9854;SDS011;4966;48.112;9.282;2023-02-15T12:27:50;23.42;;;13.35;;
9854;SDS011;4966;48.112;9.282;2023-02-15T12:30:20;21.23;;;12.70;;
9854;SDS011;4966;48.112;9.282;2023-02-15T12:32:56;22.77;;;13.98;;
9854;SDS011;4966;48.112;9.282;2023-02-15T12:35:28;24.90;;;16.08;;
9854;SDS011;4966;48.112;9.282;2023-02-15T12:37:57;23.52;;;13.45;;
9854;SDS011;4966;48.112;9.282;2023-02-15T12:40:27;23.65;;;14.52;;
9854;SDS011;4966;48.112;9.282;2023-02-15T12:42:58;23.35;;;13.35;;
9854;SDS011;4966;48.112;9.282;2023-02-15T12:45:31;23.33;;;14.82;;
9854;SDS011;4966;48.112;9.282;2023-02-15T12:48:17;24.45;;;13.80;;
9854;SDS011;4966;48.112;9.282;2023-02-15T12:50:45;28.42;;;13.85;;
9854;SDS011;4966;48.112;9.282;2023-02-15T12:55:56;24.98;;;13.88;;
9854;SDS011;4966;48.112;9.282;2023-02-15T12:58:24;25.67;;;13.52;;
9854;SDS011;4966;48.112;9.282;2023-02-15T13:01:09;24.65;;;13.13;;
9854;SDS011;4966;48.112;9.282;2023-02-15T13:06:26;28.00;;;13.63;;
9854;SDS011;4966;48.112;9.282;2023-02-15T13:08:54;24.10;;;12.93;;
9854;SDS011;4966;48.112;9.282;2023-02-15T13:13:54;23.98;;;12.02;;
9854;SDS011;4966;48.112;9.282;2023-02-15T13:16:21;26.10;;;12.02;;
9854;SDS011;4966;48.112;9.282;2023-02-15T13:18:55;25.27;;;12.80;;
9854;SDS011;4966;48.112;9.282;2023-02-15T13:21:23;27.00;;;12.75;;
9854;SDS011;4966;48.112;9.282;2023-02-15T13:23:53;21.92;;;12.52;;
9854;SDS011;4966;48.112;9.282;2023-02-15T13:26:23;24.60;;;12.18;;
9854;SDS011;4966;48.112;9.282;2023-02-15T13:28:53;24.17;;;12.30;;
9854;SDS011;4966;48.112;9.282;2023-02-15T13:31:22;24.15;;;11.15;;
9854;SDS011;4966;48.112;9.282;2023-02-15T13:33:54;26.63;;;12.23;;
9854;SDS011;4966;48.112;9.282;2023-02-15T13:36:36;24.65;;;12.55;;
9854;SDS011;4966;48.112;9.282;2023-02-15T13:42:20;22.15;;;10.95;;
9854;SDS011;4966;48.112;9.282;2023-02-15T13:52:27;21.17;;;10.55;;
9854;SDS011;4966;48.112;9.282;2023-02-15T13:57:36;20.98;;;9.25;;
9854;SDS011;4966;48.112;9.282;2023-02-15T14:00:44;19.70;;;10.60;;
9854;SDS011;4966;48.112;9.282;2023-02-15T14:18:44;19.80;;;9.77;;
9854;SDS011;4966;48.112;9.282;2023-02-15T14:21:21;17.23;;;9.02;;
9854;SDS011;4966;48.112;9.282;2023-02-15T14:30:18;16.27;;;7.55;;
9854;SDS011;4966;48.112;9.282;2023-02-15T14:32:47;18.00;;;8.55;;
9854;SDS011;4966;48.112;9.282;2023-02-15T14:35:17;17.83;;;8.10;;
9854;SDS011;4966;48.112;9.282;2023-02-15T14:37:57;16.90;;;8.35;;
9854;SDS011;4966;48.112;9.282;2023-02-15T14:49:11;17.17;;;9.02;;
9854;SDS011;4966;48.112;9.282;2023-02-15T14:51:53;17.17;;;9.27;;
9854;SDS011;4966;48.112;9.282;2023-02-15T15:05:08;17.30;;;9.73;;
9854;SDS011;4966;48.112;9.282;2023-02-15T15:07:48;18.23;;;10.30;;
9854;SDS011;4966;48.112;9.282;2023-02-15T15:12:51;19.98;;;9.23;;
9854;SDS011;4966;48.112;9.282;2023-02-15T15:17:52;16.85;;;8.80;;
9854;SDS011;4966;48.112;9.282;2023-02-15T15:23:38;24.50;;;9.75;;
9854;SDS011;4966;48.112;9.282;2023-02-15T15:28:52;17.48;;;9.70;;
9854;SDS011;4966;48.112;9.282;2023-02-15T15:31:00;17.50;;;9.73;;
9854;SDS011;4966;48.112;9.282;2023-02-15T15:36:15;20.60;;;10.30;;
9854;SDS011;4966;48.112;9.282;2023-02-15T15:49:28;19.25;;;10.20;;
9854;SDS011;4966;48.112;9.282;2023-02-15T15:51:59;16.95;;;9.65;;
9854;SDS011;4966;48.112;9.282;2023-02-15T15:54:26;20.27;;;10.50;;
9854;SDS011;4966;48.112;9.282;2023-02-15T15:56:53;19.92;;;9.90;;
9854;SDS011;4966;48.112;9.282;2023-02-15T15:59:26;19.83;;;9.82;;
9854;SDS011;4966;48.112;9.282;2023-02-15T16:01:54;16.73;;;9.40;;
9854;SDS011;4966;48.112;9.282;2023-02-15T16:04:25;21.23;;;11.32;;
9854;SDS011;4966;48.112;9.282;2023-02-15T16:06:52;19.60;;;11.27;;
9854;SDS011;4966;48.112;9.282;2023-02-15T16:09:19;21.10;;;9.95;;
9854;SDS011;4966;48.112;9.282;2023-02-15T16:11:47;21.80;;;10.80;;
9854;SDS011;4966;48.112;9.282;2023-02-15T16:14:27;21.23;;;11.45;;
9854;SDS011;4966;48.112;9.282;2023-02-15T16:16:57;20.80;;;10.57;;
9854;SDS011;4966;48.112;9.282;2023-02-15T16:19:29;22.10;;;11.40;;
9854;SDS011;4966;48.112;9.282;2023-02-15T16:21:58;21.27;;;10.57;;
9854;SDS011;4966;48.112;9.282;2023-02-15T16:32:43;17.10;;;8.05;;
9854;SDS011;4966;48.112;9.282;2023-02-15T16:35:12;19.42;;;8.50;;
9854;SDS011;4966;48.112;9.282;2023-02-15T16:37:39;17.63;;;8.18;;
9854;SDS011;4966;48.112;9.282;2023-02-15T16:40:05;18.48;;;8.00;;
9854;SDS011;4966;48.112;9.282;2023-02-15T16:42:31;15.68;;;7.88;;
9854;SDS011;4966;48.112;9.282;2023-02-15T16:45:12;16.75;;;8.07;;
9854;SDS011;4966;48.112;9.282;2023-02-15T16:47:43;18.33;;;8.27;;
9854;SDS011;4966;48.112;9.282;2023-02-15T16:50:23;15.82;;;7.22;;
9854;SDS011;4966;48.112;9.282;2023-02-15T16:52:57;19.80;;;8.52;;
9854;SDS011;4966;48.112;9.282;2023-02-15T16:55:25;19.55;;;8.15;;
9854;SDS011;4966;48.112;9.282;2023-02-15T16:57:57;25.33;;;9.35;;
9854;SDS011;4966;48.112;9.282;2023-02-15T17:00:26;33.90;;;12.63;;
9854;SDS011;4966;48.112;9.282;2023-02-15T17:02:59;27.65;;;11.05;;
9854;SDS011;4966;48.112;9.282;2023-02-15T17:05:46;20.27;;;8.40;;
9854;SDS011;4966;48.112;9.282;2023-02-15T17:10:39;32.05;;;11.95;;
9854;SDS011;4966;48.112;9.282;2023-02-15T17:13:10;26.27;;;9.30;;
9854;SDS011;4966;48.112;9.282;2023-02-15T17:15:41;20.80;;;7.78;;
9854;SDS011;4966;48.112;9.282;2023-02-15T17:18:14;16.65;;;7.28;;
9854;SDS011;4966;48.112;9.282;2023-02-15T17:20:43;23.65;;;9.70;;
9854;SDS011;4966;48.112;9.282;2023-02-15T17:23:29;45.33;;;15.45;;
9854;SDS011;4966;48.112;9.282;2023-02-15T17:25:55;57.15;;;17.45;;
9854;SDS011;4966;48.112;9.282;2023-02-15T17:28:22;35.28;;;12.75;;
9854;SDS011;4966;48.112;9.282;2023-02-15T17:30:50;58.13;;;16.45;;
9854;SDS011;4966;48.112;9.282;2023-02-15T17:33:19;42.83;;;15.65;;
9854;SDS011;4966;48.112;9.282;2023-02-15T17:38:30;25.23;;;9.25;;
9854;SDS011;4966;48.112;9.282;2023-02-15T17:40:56;20.85;;;8.07;;
9854;SDS011;4966;48.112;9.282;2023-02-15T17:43:23;21.30;;;8.43;;
9854;SDS011;4966;48.112;9.282;2023-02-15T17:45:49;13.77;;;6.32;;
9854;SDS011;4966;48.112;9.282;2023-02-15T17:48:34;21.02;;;9.05;;
9854;SDS011;4966;48.112;9.282;2023-02-15T17:51:01;20.15;;;8.20;;
9854;SDS011;4966;48.112;9.282;2023-02-15T17:53:28;17.85;;;7.22;;
9854;SDS011;4966;48.112;9.282;2023-02-15T17:55:54;19.50;;;9.60;;
9854;SDS011;4966;48.112;9.282;2023-02-15T17:58:19;21.83;;;8.85;;
9854;SDS011;4966;48.112;9.282;2023-02-15T18:06:30;16.85;;;6.47;;
9854;SDS011;4966;48.112;9.282;2023-02-15T18:09:17;17.42;;;6.88;;
9854;SDS011;4966;48.112;9.282;2023-02-15T18:12:20;18.77;;;6.90;;
9854;SDS011;4966;48.112;9.282;2023-02-15T18:14:50;18.80;;;6.57;;
9854;SDS011;4966;48.112;9.282;2023-02-15T18:17:17;17.55;;;7.40;;
9854;SDS011;4966;48.112;9.282;2023-02-15T18:19:43;18.52;;;7.43;;
9854;SDS011;4966;48.112;9.282;2023-02-15T18:22:10;16.63;;;7.13;;
9854;SDS011;4966;48.112;9.282;2023-02-15T18:24:38;17.58;;;7.68;;
9854;SDS011;4966;48.112;9.282;2023-02-15T18:27:03;18.67;;;7.40;;
9854;SDS011;4966;48.112;9.282;2023-02-15T18:29:29;18.83;;;7.57;;
9854;SDS011;4966;48.112;9.282;2023-02-15T18:31:55;19.35;;;7.70;;
9854;SDS011;4966;48.112;9.282;2023-02-15T18:34:29;24.08;;;8.07;;
9854;SDS011;4966;48.112;9.282;2023-02-15T18:36:57;19.27;;;8.05;;
9854;SDS011;4966;48.112;9.282;2023-02-15T18:39:28;18.75;;;7.43;;
9854;SDS011;4966;48.112;9.282;2023-02-15T18:42:01;17.05;;;6.78;;
9854;SDS011;4966;48.112;9.282;2023-02-15T18:44:27;18.17;;;8.02;;
9854;SDS011;4966;48.112;9.282;2023-02-15T18:46:52;16.83;;;7.35;;
9854;SDS011;4966;48.112;9.282;2023-02-15T18:49:18;17.35;;;7.35;;